Time;durP1;ratioP1;P1;durP2;ratioP2;P2;SDS_P1;SDS_P2;PMS_P1;PMS_P2;Temp;Humidity;BMP_temperature;BMP_pressure;BME280_temperature;BME280_humidity;BME280_pressure;Samples;Min_cycle;Max_cycle;Signal;HPM_P1;HPM_P2
2022/05/24 00:00:37;;;;;;;10.35;6.40;;;13.60;99.90;;;;;;4969299;28;20038;-69
2022/05/24 00:03:04;;;;;;;12.95;7.13;;;13.60;99.90;;;;;;4967713;28;20046;-69
2022/05/24 00:05:31;;;;;;;14.43;8.63;;;13.60;99.90;;;;;;4969065;28;20051;-69
2022/05/24 00:07:57;;;;;;;14.75;9.23;;;13.60;99.90;;;;;;4968560;28;20069;-69
2022/05/24 00:10:28;;;;;;;14.60;9.43;;;13.50;99.90;;;;;;4970024;28;20485;-69
2022/05/24 00:12:54;;;;;;;16.83;9.77;;;13.60;99.90;;;;;;4967377;28;20047;-69
2022/05/24 00:15:28;;;;;;;15.10;8.52;;;13.50;99.90;;;;;;4971629;28;20049;-68
2022/05/24 00:17:58;;;;;;;11.48;8.40;;;13.50;99.90;;;;;;4968177;28;20508;-69
2022/05/24 00:20:27;;;;;;;12.65;8.38;;;13.50;99.90;;;;;;4967897;28;21487;-68
2022/05/24 00:22:53;;;;;;;14.98;8.55;;;13.40;99.90;;;;;;4967559;28;20038;-68
2022/05/24 00:25:19;;;;;;;12.93;8.43;;;13.40;99.90;;;;;;4969585;28;20524;-68
2022/05/24 00:27:46;;;;;;;15.73;9.38;;;13.30;99.90;;;;;;4968516;28;20053;-69
2022/05/24 00:30:14;;;;;;;14.75;9.13;;;13.30;99.90;;;;;;4966222;28;20039;-69
2022/05/24 00:32:40;;;;;;;14.27;9.10;;;13.30;99.90;;;;;;4967677;28;20041;-69
2022/05/24 00:35:06;;;;;;;13.35;9.55;;;13.20;99.90;;;;;;4965455;28;20035;-69
2022/05/24 00:37:35;;;;;;;14.27;9.48;;;13.20;99.90;;;;;;4966776;28;20054;-69
2022/05/24 00:40:00;;;;;;;14.35;9.00;;;13.20;99.90;;;;;;4967946;28;20070;-69
2022/05/24 00:42:30;;;;;;;13.82;9.13;;;13.30;99.90;;;;;;4967687;28;20097;-70
2022/05/24 00:45:32;;;;;;;16.15;9.07;;;13.30;99.90;;;;;;4967990;28;20078;-70
2022/05/24 00:48:06;;;;;;;12.30;7.88;;;13.30;99.90;;;;;;4965964;28;20047;-66
2022/05/24 00:50:38;;;;;;;11.57;8.20;;;13.30;99.90;;;;;;4966247;28;20034;-68
2022/05/24 00:53:20;;;;;;;14.25;8.52;;;13.30;99.90;;;;;;4964988;28;20046;-68
2022/05/24 00:56:17;;;;;;;12.10;7.53;;;13.20;99.90;;;;;;4967232;28;20043;-68
2022/05/24 00:58:53;;;;;;;10.10;7.57;;;13.20;99.90;;;;;;4968270;28;20043;-68
2022/05/24 01:01:40;;;;;;;12.70;6.88;;;13.20;99.90;;;;;;4967119;28;20046;-68
2022/05/24 01:04:08;;;;;;;12.02;7.25;;;13.20;99.90;;;;;;4966483;28;20088;-68
2022/05/24 01:06:34;;;;;;;12.32;7.30;;;13.10;99.90;;;;;;4966807;28;20560;-69
2022/05/24 01:09:04;;;;;;;9.95;6.32;;;13.10;99.90;;;;;;4967083;28;20056;-68
2022/05/24 01:11:32;;;;;;;12.73;6.20;;;13.10;99.90;;;;;;4969691;28;20037;-69
2022/05/24 01:14:00;;;;;;;9.45;6.10;;;13.00;99.90;;;;;;4968866;28;20046;-67
2022/05/24 01:16:26;;;;;;;9.93;6.55;;;13.00;99.90;;;;;;4966593;28;20051;-69
2022/05/24 01:18:52;;;;;;;10.80;6.53;;;12.90;99.90;;;;;;4967830;28;20050;-69
2022/05/24 01:21:18;;;;;;;11.75;6.68;;;12.90;99.90;;;;;;4964716;28;21419;-69
2022/05/24 01:24:07;;;;;;;14.40;6.85;;;12.80;99.90;;;;;;4967864;28;20093;-68
2022/05/24 01:26:51;;;;;;;12.57;6.60;;;12.70;99.90;;;;;;4967789;28;20047;-69
2022/05/24 01:29:20;;;;;;;10.02;6.80;;;12.70;99.90;;;;;;4969323;28;20409;-69
2022/05/24 01:37:17;;;;;;;10.25;7.50;;;12.50;99.90;;;;;;4966975;28;20078;-69
2022/05/24 01:39:47;;;;;;;13.77;7.13;;;12.50;99.90;;;;;;4966784;28;20042;-68
2022/05/24 01:42:14;;;;;;;13.50;7.18;;;12.50;99.90;;;;;;4964870;28;20485;-68
2022/05/24 01:44:56;;;;;;;10.80;6.63;;;12.50;99.90;;;;;;4967078;28;20061;-70
2022/05/24 01:47:23;;;;;;;11.27;7.18;;;12.40;99.90;;;;;;4980871;28;20039;-69
2022/05/24 01:49:53;;;;;;;12.55;8.82;;;12.40;99.90;;;;;;4948761;28;20058;-69
2022/05/24 01:52:48;;;;;;;14.48;8.55;;;12.40;99.90;;;;;;4964303;28;20129;-69
2022/05/24 01:55:19;;;;;;;13.38;7.80;;;12.50;99.90;;;;;;4966516;28;20529;-69
2022/05/24 01:57:50;;;;;;;12.35;8.25;;;12.30;99.90;;;;;;4968393;28;20047;-69
2022/05/24 02:00:16;;;;;;;14.05;7.65;;;12.30;99.90;;;;;;4967515;28;20050;-69
2022/05/24 02:02:43;;;;;;;13.38;7.70;;;12.30;99.90;;;;;;4964631;28;20047;-68
2022/05/24 02:05:11;;;;;;;17.67;8.40;;;12.30;99.90;;;;;;4966693;28;20070;-69
2022/05/24 02:07:36;;;;;;;15.05;8.73;;;12.30;99.90;;;;;;4965871;28;20070;-69
2022/05/24 02:10:03;;;;;;;10.02;7.95;;;12.30;99.90;;;;;;4966600;28;20051;-69
2022/05/24 02:12:43;;;;;;;13.20;9.05;;;12.30;99.90;;;;;;4965418;28;20472;-69
2022/05/24 02:15:10;;;;;;;12.95;9.27;;;12.30;99.90;;;;;;4968293;28;20046;-69
2022/05/24 02:18:01;;;;;;;16.42;8.77;;;12.30;99.90;;;;;;4965499;28;20485;-69
2022/05/24 02:20:31;;;;;;;15.48;9.20;;;12.30;99.90;;;;;;4966186;28;20505;-70
2022/05/24 02:23:00;;;;;;;15.68;9.23;;;12.30;99.90;;;;;;4964025;28;20047;-69
2022/05/24 02:25:32;;;;;;;14.50;9.27;;;12.30;99.90;;;;;;4969852;28;20066;-69
2022/05/24 02:27:58;;;;;;;16.58;9.65;;;12.30;99.90;;;;;;4966140;28;20417;-69
2022/05/24 02:30:26;;;;;;;14.40;10.18;;;12.30;99.90;;;;;;4964729;28;20196;-69
2022/05/24 02:32:52;;;;;;;16.10;9.45;;;12.40;99.90;;;;;;4965737;28;20053;-69
2022/05/24 02:35:18;;;;;;;12.27;9.65;;;12.50;99.90;;;;;;4962576;28;20043;-68
2022/05/24 02:37:44;;;;;;;13.50;9.50;;;12.40;99.90;;;;;;4962272;28;20038;-69
2022/05/24 02:42:56;;;;;;;13.95;9.80;;;12.40;99.90;;;;;;4965644;28;21649;-68
2022/05/24 02:45:22;;;;;;;15.75;9.88;;;12.40;99.90;;;;;;4967580;28;20121;-69
2022/05/24 02:47:48;;;;;;;15.32;10.02;;;12.50;99.90;;;;;;4980688;28;20034;-68
2022/05/24 02:50:14;;;;;;;16.50;10.80;;;12.50;99.90;;;;;;4962995;28;20102;-69
2022/05/24 02:52:40;;;;;;;14.57;9.50;;;12.60;99.90;;;;;;4963005;28;20043;-68
2022/05/24 02:55:11;;;;;;;18.05;10.82;;;12.50;99.90;;;;;;4966644;28;20043;-69
2022/05/24 02:57:37;;;;;;;14.75;9.95;;;12.50;99.90;;;;;;4966340;28;20106;-69
2022/05/24 03:00:08;;;;;;;20.58;11.23;;;12.60;99.90;;;;;;4966275;28;20057;-68
2022/05/24 03:02:34;;;;;;;18.92;11.10;;;12.50;99.90;;;;;;4966352;28;20168;-68
2022/05/24 03:05:01;;;;;;;18.75;11.18;;;12.60;99.90;;;;;;4967113;28;20125;-68
2022/05/24 03:10:11;;;;;;;16.20;10.75;;;12.60;99.90;;;;;;4965872;28;20074;-68
2022/05/24 03:15:21;;;;;;;19.73;11.07;;;12.60;99.90;;;;;;4967961;28;20051;-68
2022/05/24 03:17:47;;;;;;;17.42;12.02;;;12.60;99.90;;;;;;4966713;28;20058;-68
2022/05/24 03:20:12;;;;;;;20.05;11.95;;;12.80;99.90;;;;;;4963590;28;20042;-68
2022/05/24 03:22:38;;;;;;;20.70;11.88;;;12.70;99.90;;;;;;4965034;28;20043;-68
2022/05/24 03:25:04;;;;;;;21.23;13.23;;;12.80;99.90;;;;;;4964482;28;20047;-68
2022/05/24 03:27:30;;;;;;;21.77;12.10;;;12.80;99.90;;;;;;4968900;28;20117;-68
2022/05/24 03:29:55;;;;;;;21.80;14.07;;;12.80;99.90;;;;;;4969898;28;20113;-69
2022/05/24 03:32:21;;;;;;;30.15;14.32;;;12.80;99.90;;;;;;4968711;28;20114;-68
2022/05/24 03:34:47;;;;;;;22.67;14.70;;;12.90;99.90;;;;;;4970051;28;20094;-68
2022/05/24 03:37:13;;;;;;;20.60;13.88;;;12.90;99.90;;;;;;4966752;28;20078;-68
2022/05/24 03:39:38;;;;;;;24.30;14.32;;;12.90;99.90;;;;;;4968995;28;20606;-69
2022/05/24 03:42:05;;;;;;;21.83;14.68;;;13.00;99.90;;;;;;4967947;28;20047;-68
2022/05/24 03:44:34;;;;;;;21.30;14.75;;;13.00;99.90;;;;;;4969605;28;20085;-69
2022/05/24 03:47:00;;;;;;;25.45;16.15;;;13.10;99.90;;;;;;4969180;28;20672;-68
2022/05/24 03:49:25;;;;;;;22.85;16.10;;;13.00;99.90;;;;;;4950396;28;20112;-69
2022/05/24 03:51:51;;;;;;;26.73;17.20;;;13.10;99.90;;;;;;4967870;28;20082;-69
2022/05/24 03:54:18;;;;;;;24.90;16.83;;;13.10;99.90;;;;;;4964772;28;20061;-68
2022/05/24 03:58:00;;;;;;;27.30;17.35;;;13.10;99.90;;;;;;4973693;28;20179;-68
2022/05/24 03:59:31;;;;;;;30.40;19.58;;;13.10;99.90;;;;;;4967488;28;20058;-69
2022/05/24 04:01:57;;;;;;;26.67;18.60;;;13.10;99.90;;;;;;4968186;28;20188;-69
2022/05/24 04:04:22;;;;;;;27.85;19.05;;;13.20;99.90;;;;;;4968053;28;20078;-68
2022/05/24 04:06:48;;;;;;;32.95;20.15;;;13.20;99.90;;;;;;4965952;28;20078;-68
2022/05/24 04:09:14;;;;;;;27.83;19.60;;;13.30;99.90;;;;;;4971453;28;20112;-69
2022/05/24 04:11:39;;;;;;;28.85;19.70;;;13.20;99.90;;;;;;4975481;28;20043;-69
2022/05/24 04:14:05;;;;;;;35.03;19.58;;;13.20;99.90;;;;;;4956827;28;20073;-68
2022/05/24 04:16:31;;;;;;;30.58;20.65;;;13.20;99.90;;;;;;4973051;28;20045;-70
2022/05/24 04:18:57;;;;;;;29.15;19.98;;;13.30;99.90;;;;;;4972521;28;20457;-70
2022/05/24 04:21:23;;;;;;;35.90;22.02;;;13.30;99.90;;;;;;4972423;28;20118;-69
2022/05/24 04:23:48;;;;;;;29.95;20.00;;;13.30;99.90;;;;;;4967362;28;20046;-69
2022/05/24 04:26:15;;;;;;;32.03;21.00;;;13.30;99.90;;;;;;4970465;28;20455;-69
2022/05/24 04:28:40;;;;;;;34.05;22.58;;;13.40;99.90;;;;;;4969318;28;20051;-69
2022/05/24 04:31:06;;;;;;;28.67;20.20;;;13.30;99.90;;;;;;4968144;28;20047;-69
2022/05/24 04:33:32;;;;;;;31.20;21.65;;;13.40;99.90;;;;;;4963628;28;20133;-70
2022/05/24 04:35:57;;;;;;;30.88;21.58;;;13.40;99.90;;;;;;4968053;28;20138;-69
2022/05/24 04:38:24;;;;;;;31.80;20.80;;;13.40;99.90;;;;;;4970366;28;20097;-69
2022/05/24 04:43:34;;;;;;;28.70;19.15;;;13.50;99.90;;;;;;4973271;28;20058;-69
2022/05/24 04:45:59;;;;;;;24.90;18.50;;;13.50;99.90;;;;;;4974611;28;20050;-67
2022/05/24 04:48:25;;;;;;;28.65;19.67;;;13.50;99.90;;;;;;4975456;28;20043;-69
2022/05/24 04:50:52;;;;;;;24.65;18.92;;;13.50;99.90;;;;;;4971718;28;20031;-69
2022/05/24 04:53:19;;;;;;;31.17;19.30;;;13.70;99.90;;;;;;4976351;28;20126;-71
2022/05/24 04:55:45;;;;;;;25.77;17.02;;;13.60;99.90;;;;;;4976824;28;20051;-71
2022/05/24 04:58:11;;;;;;;30.65;17.65;;;13.60;99.90;;;;;;4980202;28;20122;-70
2022/05/24 05:00:38;;;;;;;29.27;17.33;;;13.50;99.90;;;;;;4973811;28;20138;-67
2022/05/24 05:03:13;;;;;;;25.38;17.05;;;13.60;99.90;;;;;;4973019;28;20051;-70
2022/05/24 05:05:39;;;;;;;25.75;16.80;;;13.60;99.90;;;;;;4973297;28;20046;-68
2022/05/24 05:08:06;;;;;;;22.67;15.70;;;13.70;99.90;;;;;;4975755;28;20047;-68
2022/05/24 05:10:36;;;;;;;28.73;17.13;;;13.70;99.90;;;;;;4967776;28;20043;-68
2022/05/24 05:13:04;;;;;;;23.48;15.85;;;13.70;99.90;;;;;;4968767;28;20464;-69
2022/05/24 05:15:31;;;;;;;26.17;16.30;;;13.80;99.90;;;;;;4968369;28;20045;-69
2022/05/24 05:18:09;;;;;;;26.38;15.40;;;13.80;99.90;;;;;;4966118;28;20054;-69
2022/05/24 05:20:39;;;;;;;22.83;13.55;;;13.80;99.90;;;;;;4968179;28;20042;-70
2022/05/24 05:23:06;;;;;;;26.25;14.50;;;13.80;99.90;;;;;;4976672;28;20481;-69
2022/05/24 05:25:32;;;;;;;27.30;15.35;;;13.90;99.90;;;;;;4973814;28;20417;-69
2022/05/24 05:28:01;;;;;;;22.00;13.48;;;13.90;99.90;;;;;;4970714;28;20054;-70
2022/05/24 05:33:12;;;;;;;19.25;14.02;;;13.90;99.90;;;;;;4954030;28;20508;-69
2022/05/24 05:35:38;;;;;;;22.17;14.02;;;14.00;99.90;;;;;;4968988;28;20042;-69
2022/05/24 05:38:04;;;;;;;20.05;13.18;;;14.10;99.90;;;;;;4969257;28;20196;-71
2022/05/24 05:40:30;;;;;;;24.10;14.10;;;14.20;99.90;;;;;;4969876;28;20039;-70
2022/05/24 05:42:55;;;;;;;22.02;12.35;;;14.20;99.90;;;;;;4971212;28;20038;-70
2022/05/24 05:45:21;;;;;;;23.13;13.75;;;14.20;99.90;;;;;;4965812;28;20398;-69
2022/05/24 05:47:48;;;;;;;18.33;13.48;;;14.20;99.90;;;;;;4964520;28;20137;-69
2022/05/24 05:50:14;;;;;;;24.85;14.27;;;14.20;99.90;;;;;;4977651;28;20433;-70
2022/05/24 05:52:39;;;;;;;24.23;14.00;;;14.20;99.90;;;;;;4971400;28;20169;-69
2022/05/24 05:55:06;;;;;;;24.02;13.75;;;14.10;99.90;;;;;;4969636;28;20038;-69
2022/05/24 05:57:32;;;;;;;22.05;14.05;;;14.10;99.90;;;;;;4970897;28;20123;-70
2022/05/24 05:59:57;;;;;;;20.23;13.73;;;14.10;99.90;;;;;;4973254;28;20179;-70
2022/05/24 06:02:26;;;;;;;22.85;14.18;;;14.00;99.90;;;;;;4973491;28;20117;-69
2022/05/24 06:05:01;;;;;;;20.85;14.60;;;14.00;99.90;;;;;;4973505;28;20090;-70
2022/05/24 06:07:30;;;;;;;25.30;13.45;;;14.00;99.90;;;;;;4972606;28;20055;-70
2022/05/24 06:09:56;;;;;;;28.23;15.00;;;14.00;99.90;;;;;;4971060;28;20057;-71
2022/05/24 06:12:22;;;;;;;22.35;14.25;;;13.90;99.90;;;;;;4972070;28;20571;-70
2022/05/24 06:14:48;;;;;;;22.90;16.52;;;13.90;99.90;;;;;;4972955;28;20078;-69
2022/05/24 06:17:13;;;;;;;27.98;15.55;;;13.90;99.90;;;;;;4970838;28;20798;-69
2022/05/24 06:19:39;;;;;;;29.48;17.25;;;13.80;99.90;;;;;;4971632;28;20493;-70
2022/05/24 06:22:05;;;;;;;25.33;16.17;;;13.80;99.90;;;;;;4971767;28;20515;-70
2022/05/24 06:24:31;;;;;;;30.15;16.20;;;13.80;99.90;;;;;;4963120;28;20043;-70
2022/05/24 06:26:56;;;;;;;24.05;14.00;;;13.70;99.90;;;;;;4962584;28;20095;-70
2022/05/24 06:29:24;;;;;;;30.02;13.88;;;13.70;99.90;;;;;;4967903;28;20039;-71
2022/05/24 06:31:52;;;;;;;22.42;13.73;;;13.70;99.90;;;;;;4961600;28;20050;-70
2022/05/24 06:34:18;;;;;;;26.17;14.02;;;13.60;99.90;;;;;;4971778;28;20046;-69
2022/05/24 06:36:44;;;;;;;20.88;12.93;;;13.60;99.90;;;;;;4966471;28;20043;-71
2022/05/24 06:39:10;;;;;;;29.08;14.93;;;13.60;99.90;;;;;;4952776;28;20043;-71
2022/05/24 06:41:35;;;;;;;21.15;13.38;;;13.60;99.90;;;;;;4974195;28;20386;-71
2022/05/24 06:44:11;;;;;;;22.05;14.45;;;13.50;99.90;;;;;;4974023;28;20463;-70
2022/05/24 06:46:38;;;;;;;26.67;17.00;;;13.50;99.90;;;;;;4948213;28;20047;-70
2022/05/24 06:49:04;;;;;;;23.90;15.00;;;13.60;99.90;;;;;;4971574;28;20042;-71
2022/05/24 06:51:31;;;;;;;22.73;16.27;;;13.70;99.90;;;;;;4972193;28;20133;-72
2022/05/24 06:53:56;;;;;;;25.25;15.63;;;13.70;99.90;;;;;;4971696;28;20077;-71
2022/05/24 06:56:22;;;;;;;20.73;14.68;;;13.70;99.90;;;;;;4966203;28;20074;-71
2022/05/24 06:58:48;;;;;;;30.33;14.95;;;13.70;99.90;;;;;;4957173;28;20295;-70
2022/05/24 07:04:02;;;;;;;30.20;16.48;;;13.70;99.90;;;;;;4975451;28;20050;-70
2022/05/24 07:06:32;;;;;;;29.15;15.85;;;13.80;99.90;;;;;;4974271;28;20053;-69
2022/05/24 07:09:00;;;;;;;30.65;16.00;;;13.80;99.90;;;;;;4985931;28;20517;-70
2022/05/24 07:11:25;;;;;;;26.92;18.42;;;13.90;99.90;;;;;;4974033;28;20065;-70
2022/05/24 07:13:51;;;;;;;27.13;18.23;;;14.00;99.90;;;;;;4969619;28;20047;-71
2022/05/24 07:16:17;;;;;;;30.15;19.45;;;14.10;99.90;;;;;;4960224;28;20093;-70
2022/05/24 07:18:42;;;;;;;33.20;19.77;;;14.10;99.90;;;;;;4976167;28;20100;-70
2022/05/24 07:21:08;;;;;;;32.95;19.15;;;14.30;99.90;;;;;;4975858;28;20043;-72
2022/05/24 07:23:37;;;;;;;23.45;13.60;;;14.40;99.90;;;;;;4974337;28;20069;-70
2022/05/24 07:26:18;;;;;;;21.77;14.00;;;14.50;99.90;;;;;;4972367;28;20135;-71
2022/05/24 07:28:44;;;;;;;24.77;14.35;;;14.60;99.90;;;;;;4956040;28;20058;-70
2022/05/24 07:31:10;;;;;;;17.15;11.18;;;14.70;99.90;;;;;;4973893;28;20117;-70
2022/05/24 07:33:37;;;;;;;19.77;10.70;;;14.70;99.90;;;;;;4974434;28;20204;-70
2022/05/24 07:36:04;;;;;;;18.80;10.43;;;14.60;99.90;;;;;;4973103;28;20054;-70
2022/05/24 07:38:31;;;;;;;17.05;9.73;;;14.60;99.90;;;;;;4956795;28;20460;-71
2022/05/24 07:46:25;;;;;;;18.90;8.95;;;14.40;99.90;;;;;;4968428;28;20046;-70
2022/05/24 07:48:51;;;;;;;16.75;7.68;;;14.30;99.90;;;;;;4970665;28;20059;-71
2022/05/24 07:51:17;;;;;;;17.33;8.50;;;14.20;99.90;;;;;;4971399;28;20045;-71
2022/05/24 07:53:42;;;;;;;13.70;7.53;;;14.20;99.90;;;;;;4971244;28;20050;-70
2022/05/24 07:56:08;;;;;;;14.27;7.28;;;14.00;99.90;;;;;;4969587;28;20418;-71
2022/05/24 07:58:34;;;;;;;11.68;5.95;;;14.10;99.90;;;;;;4972515;28;20057;-69
2022/05/24 08:01:00;;;;;;;18.33;6.95;;;14.00;99.90;;;;;;4970681;28;20070;-69
2022/05/24 08:03:27;;;;;;;17.02;7.68;;;14.00;99.90;;;;;;4969760;28;20185;-71
2022/05/24 08:05:53;;;;;;;16.95;7.00;;;13.90;99.90;;;;;;4971784;28;20054;-70
2022/05/24 08:08:19;;;;;;;15.75;7.65;;;13.90;99.90;;;;;;4971316;28;20054;-69
2022/05/24 08:10:45;;;;;;;12.75;7.28;;;13.80;99.90;;;;;;4966094;28;20070;-70
2022/05/24 08:13:14;;;;;;;22.35;9.65;;;13.80;99.90;;;;;;4964978;28;20086;-69
2022/05/24 08:15:40;;;;;;;16.77;8.50;;;13.70;99.90;;;;;;4971106;28;20058;-70
2022/05/24 08:18:06;;;;;;;19.65;9.55;;;13.70;99.90;;;;;;4970215;28;20097;-70
2022/05/24 08:20:33;;;;;;;18.85;8.90;;;13.60;99.90;;;;;;4969151;28;20101;-70
2022/05/24 08:22:59;;;;;;;18.60;8.35;;;13.60;99.90;;;;;;4968670;28;20051;-70
2022/05/24 08:25:27;;;;;;;16.33;8.68;;;13.60;99.90;;;;;;4969709;28;20421;-70
2022/05/24 08:27:53;;;;;;;21.95;9.80;;;13.50;99.90;;;;;;4970036;28;20051;-69
2022/05/24 08:30:19;;;;;;;38.58;11.60;;;13.50;99.90;;;;;;4969990;28;20413;-69
2022/05/24 08:32:48;;;;;;;19.60;10.70;;;13.50;99.90;;;;;;4969259;28;20057;-70
2022/05/24 08:35:17;;;;;;;19.15;10.57;;;13.40;99.90;;;;;;4970795;28;20050;-70
2022/05/24 08:37:44;;;;;;;35.25;12.40;;;13.40;99.90;;;;;;4968757;28;20113;-70
2022/05/24 08:40:11;;;;;;;17.85;9.02;;;13.40;99.90;;;;;;4968379;28;20152;-71
2022/05/24 08:42:57;;;;;;;22.67;10.65;;;13.40;99.90;;;;;;4969812;28;20051;-70
2022/05/24 08:48:38;;;;;;;22.45;10.60;;;13.30;99.90;;;;;;4973203;28;20042;-70
2022/05/24 08:51:12;;;;;;;33.90;12.63;;;13.30;99.90;;;;;;4961962;28;20082;-69
2022/05/24 08:53:47;;;;;;;26.50;11.73;;;13.20;99.90;;;;;;4971739;28;20134;-70
2022/05/24 08:56:22;;;;;;;32.90;15.20;;;13.20;99.90;;;;;;4966730;28;20122;-70
2022/05/24 08:59:10;;;;;;;30.70;15.50;;;13.30;99.90;;;;;;4989021;28;20049;-69
2022/05/24 09:01:36;;;;;;;28.45;16.58;;;13.30;99.90;;;;;;4972782;28;20493;-70
2022/05/24 09:04:05;;;;;;;40.13;17.85;;;13.40;99.90;;;;;;4973741;28;20050;-69
2022/05/24 09:06:46;;;;;;;24.27;15.05;;;13.40;99.90;;;;;;4973897;28;20073;-70
2022/05/24 09:09:28;;;;;;;26.08;16.60;;;13.60;99.90;;;;;;4971245;28;20055;-69
2022/05/24 09:12:18;;;;;;;22.48;14.35;;;13.70;99.90;;;;;;4971179;28;20047;-72
2022/05/24 09:14:56;;;;;;;22.63;12.27;;;13.70;99.90;;;;;;4974247;28;20043;-70
2022/05/24 09:17:53;;;;;;;23.20;11.98;;;13.70;99.90;;;;;;4972468;28;20457;-71
2022/05/24 09:20:26;;;;;;;21.30;12.55;;;13.70;99.90;;;;;;4974132;28;20042;-70
2022/05/24 09:23:00;;;;;;;21.45;15.30;;;13.70;99.90;;;;;;4972247;28;20062;-70
2022/05/24 09:25:26;;;;;;;32.00;18.50;;;13.80;99.90;;;;;;4974326;28;20166;-70
2022/05/24 09:27:54;;;;;;;30.58;18.33;;;13.90;99.90;;;;;;4971151;28;20130;-69
2022/05/24 09:30:19;;;;;;;;;;;14.10;99.90;;;;;;4973877;28;20620;-70
2022/05/24 09:32:48;;;;;;;25.67;14.63;;;14.00;99.90;;;;;;4972194;28;20005;-69
2022/05/24 09:35:16;;;;;;;12.48;7.47;;;13.90;99.90;;;;;;4973539;28;20128;-70
2022/05/24 09:37:44;;;;;;;8.00;3.75;;;13.80;99.90;;;;;;4972693;28;20046;-70
2022/05/24 09:40:23;;;;;;;7.68;4.40;;;13.60;99.90;;;;;;4974237;28;20162;-70
2022/05/24 09:42:50;;;;;;;10.55;4.30;;;13.50;99.90;;;;;;4971626;28;20531;-68
2022/05/24 09:45:23;;;;;;;6.60;3.97;;;13.50;99.90;;;;;;4972506;28;20043;-69
2022/05/24 09:47:56;;;;;;;14.25;5.53;;;13.40;99.90;;;;;;4971615;28;20038;-70
2022/05/24 09:50:31;;;;;;;10.30;4.22;;;13.40;99.90;;;;;;4973046;28;20051;-70
2022/05/24 09:53:02;;;;;;;7.72;4.82;;;13.50;99.90;;;;;;4973073;28;20043;-70
2022/05/24 09:55:39;;;;;;;11.63;5.82;;;13.50;99.90;;;;;;4973029;28;20047;-70
2022/05/24 09:58:28;;;;;;;9.25;5.00;;;13.70;99.90;;;;;;4969965;28;20061;-70
2022/05/24 10:00:57;;;;;;;8.90;5.90;;;13.70;99.90;;;;;;4955990;28;20082;-70
2022/05/24 10:03:27;;;;;;;9.35;5.20;;;13.90;99.90;;;;;;4971988;28;20042;-70
2022/05/24 10:06:06;;;;;;;9.77;5.38;;;14.10;99.90;;;;;;4972354;28;20565;-70
2022/05/24 10:08:49;;;;;;;6.65;4.65;;;14.20;99.90;;;;;;4972634;28;20054;-70
2022/05/24 10:11:36;;;;;;;6.45;4.32;;;14.30;99.90;;;;;;4973243;28;20035;-70
2022/05/24 10:14:27;;;;;;;7.07;4.53;;;14.50;99.90;;;;;;4958833;28;20409;-70
2022/05/24 10:17:15;;;;;;;7.93;3.40;;;14.60;99.90;;;;;;4963450;28;20050;-69
2022/05/24 10:19:55;;;;;;;9.63;4.53;;;14.70;99.90;;;;;;4972177;28;20540;-69
2022/05/24 10:22:48;;;;;;;6.55;5.00;;;14.80;99.90;;;;;;4967808;28;20035;-70
2022/05/24 10:25:26;;;;;;;7.05;3.90;;;15.00;99.90;;;;;;4959081;28;20049;-70
2022/05/24 10:27:59;;;;;;;6.88;3.38;;;15.00;99.90;;;;;;4964927;28;20077;-70
2022/05/24 10:30:31;;;;;;;5.63;3.83;;;15.10;99.90;;;;;;4970773;28;20457;-71
2022/05/24 10:39:02;;;;;;;8.38;4.13;;;15.00;99.90;;;;;;4978276;28;20046;-70
2022/05/24 10:41:45;;;;;;;7.80;3.50;;;15.00;99.90;;;;;;4970828;28;20054;-70
2022/05/24 10:44:36;;;;;;;10.82;3.83;;;14.70;99.90;;;;;;4969100;28;20038;-70
2022/05/24 10:47:07;;;;;;;5.88;3.33;;;14.60;99.90;;;;;;4970385;28;20120;-70
2022/05/24 10:49:48;;;;;;;6.80;3.95;;;14.30;99.90;;;;;;4962419;28;20047;-71
2022/05/24 10:52:42;;;;;;;10.65;4.03;;;14.10;99.90;;;;;;4972475;28;20378;-70
2022/05/24 10:55:25;;;;;;;8.00;3.85;;;14.00;99.90;;;;;;4972245;28;20053;-68
2022/05/24 10:57:54;;;;;;;11.25;3.67;;;14.00;99.90;;;;;;4969693;28;20477;-70
2022/05/24 11:00:24;;;;;;;12.38;3.80;;;14.20;99.90;;;;;;4979330;28;20152;-71
2022/05/24 11:03:06;;;;;;;8.07;4.53;;;14.60;99.90;;;;;;4957629;28;20109;-71
2022/05/24 11:05:36;;;;;;;7.47;4.68;;;15.10;99.90;;;;;;4953926;28;20106;-70
2022/05/24 11:08:46;;;;;;;7.57;4.00;;;15.70;99.90;;;;;;4984683;28;20059;-69
2022/05/24 11:11:46;;;;;;;5.00;3.33;;;16.30;99.90;;;;;;4973824;28;20050;-70
2022/05/24 11:14:18;;;;;;;6.55;3.45;;;16.40;99.90;;;;;;4970141;28;20413;-69
2022/05/24 11:16:52;;;;;;;9.90;3.55;;;16.30;99.90;;;;;;4970124;28;20117;-69
2022/05/24 11:19:24;;;;;;;5.55;2.63;;;16.10;99.90;;;;;;4971245;28;20046;-71
2022/05/24 11:22:19;;;;;;;4.45;2.50;;;15.80;99.90;;;;;;4972030;28;20043;-71
2022/05/24 11:24:58;;;;;;;4.63;2.67;;;15.40;99.90;;;;;;4952735;29;20397;-71
2022/05/24 11:27:47;;;;;;;5.18;2.63;;;15.10;99.90;;;;;;4966971;28;20042;-70
2022/05/24 11:30:28;;;;;;;4.25;2.90;;;15.00;99.90;;;;;;4968691;28;20054;-68
2022/05/24 11:33:05;;;;;;;3.95;2.38;;;14.90;99.90;;;;;;4972146;28;20405;-70
2022/05/24 11:35:52;;;;;;;7.15;3.03;;;14.90;99.90;;;;;;4953516;28;20098;-70
2022/05/24 11:38:23;;;;;;;5.82;3.10;;;14.70;99.90;;;;;;4960546;28;20043;-70
2022/05/24 11:41:21;;;;;;;6.38;2.92;;;14.70;99.90;;;;;;4967615;28;20133;-70
2022/05/24 11:43:50;;;;;;;6.45;2.45;;;14.60;99.90;;;;;;4956095;28;20156;-70
2022/05/24 11:46:33;;;;;;;5.75;2.55;;;15.00;99.90;;;;;;4969819;28;20043;-69
2022/05/24 11:49:19;;;;;;;5.97;2.80;;;15.40;99.90;;;;;;4974314;28;20121;-70
2022/05/24 11:51:51;;;;;;;6.30;2.40;;;15.80;99.90;;;;;;4975913;28;20054;-70
2022/05/24 11:54:27;;;;;;;12.18;2.40;;;16.30;99.90;;;;;;4974155;28;20125;-71
2022/05/24 11:57:02;;;;;;;7.15;1.85;;;16.70;99.90;;;;;;4969458;28;20055;-69
2022/05/24 11:59:40;;;;;;;3.65;1.90;;;16.90;99.90;;;;;;4977221;28;20045;-70
2022/05/24 12:07:54;;;;;;;5.10;2.47;;;17.00;99.90;;;;;;4973968;28;20501;-70
2022/05/24 12:08:30;;;;;;;7.53;2.38;;;16.80;99.90;;;;;;4972322;28;20050;-70
2022/05/24 12:11:05;;;;;;;5.60;1.98;;;16.50;99.90;;;;;;4952977;28;20050;-70
2022/05/24 12:13:51;;;;;;;10.43;2.20;;;16.30;99.90;;;;;;4980194;28;20046;-70
2022/05/24 12:16:55;;;;;;;3.88;1.40;;;16.10;99.90;;;;;;4985598;28;20039;-71
2022/05/24 12:19:37;;;;;;;4.45;1.40;;;15.70;99.90;;;;;;4985081;28;20078;-69
2022/05/24 12:22:06;;;;;;;6.35;1.70;;;15.60;99.90;;;;;;4979995;28;20048;-68
2022/05/24 12:24:36;;;;;;;6.20;1.77;;;15.40;99.90;;;;;;4989394;28;20094;-70
2022/05/24 12:27:16;;;;;;;9.20;2.05;;;15.30;99.90;;;;;;4956956;28;20064;-69
2022/05/24 12:29:45;;;;;;;5.03;1.70;;;15.20;99.90;;;;;;4977113;28;20129;-69
2022/05/24 12:32:10;;;;;;;6.82;1.75;;;15.40;99.90;;;;;;4977030;28;20050;-71
2022/05/24 12:34:36;;;;;;;4.13;1.65;;;16.00;99.90;;;;;;4973942;28;20046;-70
2022/05/24 12:37:15;;;;;;;4.05;1.60;;;16.20;99.90;;;;;;4976478;28;20486;-69
2022/05/24 12:39:41;;;;;;;3.10;1.20;;;16.10;99.90;;;;;;4960030;28;20050;-70
2022/05/24 12:42:13;;;;;;;5.53;1.60;;;15.90;99.90;;;;;;4978422;28;20088;-70
2022/05/24 12:44:45;;;;;;;6.78;1.70;;;15.50;99.90;;;;;;4973028;28;20047;-70
2022/05/24 12:47:11;;;;;;;3.80;1.73;;;15.30;99.90;;;;;;4974529;28;20061;-70
2022/05/24 12:50:02;;;;;;;9.82;2.08;;;15.10;99.90;;;;;;4982420;28;20038;-70
2022/05/24 12:52:31;;;;;;;6.82;1.95;;;15.40;99.90;;;;;;4990771;28;20436;-70
2022/05/24 12:54:59;;;;;;;6.63;1.83;;;15.90;99.90;;;;;;4972838;28;20055;-70
2022/05/24 12:57:32;;;;;;;5.75;2.15;;;16.40;99.90;;;;;;4969145;28;20050;-70
2022/05/24 13:00:08;;;;;;;3.33;1.40;;;17.00;99.90;;;;;;4980991;28;20053;-69
2022/05/24 13:02:35;;;;;;;6.78;1.73;;;17.30;99.90;;;;;;4984669;28;20100;-70
2022/05/24 13:05:07;;;;;;;5.55;2.00;;;17.20;99.90;;;;;;4966279;28;20047;-69
2022/05/24 13:07:40;;;;;;;9.07;1.73;;;17.00;99.90;;;;;;4987202;28;20050;-69
2022/05/24 13:10:23;;;;;;;10.52;2.25;;;16.70;99.90;;;;;;4976150;28;20066;-70
2022/05/24 13:13:15;;;;;;;7.15;1.67;;;16.30;99.90;;;;;;4971622;28;20412;-69
2022/05/24 13:15:56;;;;;;;4.57;1.70;;;16.10;99.90;;;;;;4973560;28;20126;-68
2022/05/24 13:18:32;;;;;;;4.93;1.77;;;15.90;99.90;;;;;;4966595;28;20054;-69
2022/05/24 13:21:04;;;;;;;8.05;1.80;;;15.70;99.90;;;;;;4970613;28;20094;-68
2022/05/24 13:23:41;;;;;;;5.75;1.75;;;15.70;99.90;;;;;;4975214;28;20523;-69
2022/05/24 13:26:08;;;;;;;6.32;1.80;;;15.90;99.90;;;;;;4976725;28;20043;-70
2022/05/24 13:28:44;;;;;;;5.38;1.30;;;16.10;99.90;;;;;;4969719;28;20054;-69
2022/05/24 13:33:56;;;;;;;3.05;1.30;;;16.70;99.90;;;;;;4977441;28;20054;-69
2022/05/24 13:36:27;;;;;;;8.80;1.30;;;16.80;99.90;;;;;;4976054;28;20061;-70
2022/05/24 13:39:01;;;;;;;3.15;1.38;;;16.80;99.90;;;;;;4977792;28;20046;-69